West Columbia, SC (29169)

11:08 AM EDT on August 30, 2015 (GMT -0400)
J and M Weather Station | | Change Station
CLOSE
Current Station
Personal Weather Station
Location: Lexington, SC
Elevation: 315 ft
Nearby Weather Stations

Elev 315 ft 33.99 °N, 81.14 °W | Updated 1 second ago

Rain
Rain
74.3 °F
Feels Like 75 °F
N
2.2
Wind Variable Wind from NE
Gusts 3.8 mph

Today
High -- | Low -- °F
--% Chance of Precip.
Yesterday
High -- | Low -- °F
Precip. -- in
6:56 AM 7:53 PM
Full, 99% visible
Pressure 30.14 in
Visibility 10.0 miles
Clouds Scattered Clouds 2200 ft
Mostly Cloudy 3000 ft
Overcast 12000 ft
Heat Index 75 °F
Dew Point 68 °F
Humidity 80%
Rainfall 0.00 in
Snow Depth Not available.
UV 2 out of 12
Pollen 2.20 out of 12
Air Quality Not available.
Flu Activity Not available.
METAR KCAE 301456Z 02004KT 10SM SCT022 BKN030 OVC120 24/19 A3015 RMK AO2 RAE47 SLP207 P0000 60001 T02390189 53009
Pressure 30.14 in
Visibility 10.0 miles
Clouds Scattered Clouds 2200 ft
Mostly Cloudy 3000 ft
Overcast 12000 ft
Heat Index 75 °F
Dew Point 68 °F
Humidity 80%
Rainfall 0.00 in
Snow Depth Not available.
UV 2 out of 12
Pollen 2.20 out of 12
Air Quality Not available.
Flu Activity Not available.
METAR KCAE 301456Z 02004KT 10SM SCT022 BKN030 OVC120 24/19 A3015 RMK AO2 RAE47 SLP207 P0000 60001 T02390189 53009

10-Day Weather Forecast

×

Almanac

Astronomy

Aug. 30, 2015 Rise Set
Actual Time
Civil Twilight
Nautical Twilight
Astronomical Twilight
Moon
Length of Visible Light
Length of Day
Tomorrow will be .
, % of the Moon is Illuminated

Today's Extremes

State Highs State Lows

Community

WunderPhotos

Upload Photos

1,850,984 photos uploaded!

WunderBlogs® & News

Nearby

Air Quality

  Air Quality AQ Index Pollutant
Not available.

Snow Depth

Station Depth Elevation

Earthquake Activity

City Distance Mag. Time & Date
Minimum magnitude displayed is 2.5.

Coastal Water Temperatures

Place Temperature

Stations

Nearby Weather Stations

Station Location Temp. Windchill Dew Point Humidity Wind Precip. Elev Updated Type